sensor_id;sensor_type;location;lat;lon;timestamp;P1;durP1;ratioP1;P2;durP2;ratioP2
56477;SDS011;42382;53.210;5.772;2023-10-13T00:01:01;83.82;;;33.10;;
56477;SDS011;42382;53.210;5.772;2023-10-13T00:03:29;109.60;;;36.63;;
56477;SDS011;42382;53.210;5.772;2023-10-13T00:05:59;116.45;;;38.65;;
56477;SDS011;42382;53.210;5.772;2023-10-13T00:08:31;118.88;;;39.28;;
56477;SDS011;42382;53.210;5.772;2023-10-13T00:10:57;120.18;;;41.53;;
56477;SDS011;42382;53.210;5.772;2023-10-13T00:13:28;87.97;;;36.00;;
56477;SDS011;42382;53.210;5.772;2023-10-13T00:15:59;103.80;;;35.08;;
56477;SDS011;42382;53.210;5.772;2023-10-13T00:18:28;97.93;;;36.25;;
56477;SDS011;42382;53.210;5.772;2023-10-13T00:21:06;95.90;;;37.20;;
56477;SDS011;42382;53.210;5.772;2023-10-13T00:23:43;131.98;;;41.50;;
56477;SDS011;42382;53.210;5.772;2023-10-13T00:26:21;105.47;;;38.72;;
56477;SDS011;42382;53.210;5.772;2023-10-13T00:28:53;100.90;;;37.45;;
56477;SDS011;42382;53.210;5.772;2023-10-13T00:31:39;114.40;;;39.78;;
56477;SDS011;42382;53.210;5.772;2023-10-13T00:34:08;104.32;;;38.95;;
56477;SDS011;42382;53.210;5.772;2023-10-13T00:36:52;95.50;;;38.13;;
56477;SDS011;42382;53.210;5.772;2023-10-13T00:39:41;98.80;;;39.28;;
56477;SDS011;42382;53.210;5.772;2023-10-13T00:42:10;97.72;;;38.33;;
56477;SDS011;42382;53.210;5.772;2023-10-13T00:44:45;97.40;;;38.40;;
56477;SDS011;42382;53.210;5.772;2023-10-13T00:47:15;91.32;;;36.83;;
56477;SDS011;42382;53.210;5.772;2023-10-13T00:49:48;106.10;;;40.85;;
56477;SDS011;42382;53.210;5.772;2023-10-13T00:52:14;92.93;;;37.45;;
56477;SDS011;42382;53.210;5.772;2023-10-13T00:54:43;98.72;;;37.42;;
56477;SDS011;42382;53.210;5.772;2023-10-13T00:57:14;99.35;;;37.88;;
56477;SDS011;42382;53.210;5.772;2023-10-13T00:59:54;91.07;;;36.42;;
56477;SDS011;42382;53.210;5.772;2023-10-13T01:02:37;101.85;;;37.78;;
56477;SDS011;42382;53.210;5.772;2023-10-13T01:05:03;78.80;;;33.75;;
56477;SDS011;42382;53.210;5.772;2023-10-13T01:07:29;87.05;;;34.28;;
56477;SDS011;42382;53.210;5.772;2023-10-13T01:09:55;84.10;;;32.38;;
56477;SDS011;42382;53.210;5.772;2023-10-13T01:12:21;82.07;;;32.17;;
56477;SDS011;42382;53.210;5.772;2023-10-13T01:14:49;80.65;;;32.70;;
56477;SDS011;42382;53.210;5.772;2023-10-13T01:17:15;77.05;;;30.20;;
56477;SDS011;42382;53.210;5.772;2023-10-13T01:19:41;72.78;;;29.13;;
56477;SDS011;42382;53.210;5.772;2023-10-13T01:22:13;73.43;;;30.38;;
56477;SDS011;42382;53.210;5.772;2023-10-13T01:24:39;72.43;;;28.38;;
56477;SDS011;42382;53.210;5.772;2023-10-13T01:27:05;67.90;;;27.13;;
56477;SDS011;42382;53.210;5.772;2023-10-13T01:29:48;49.47;;;25.13;;
56477;SDS011;42382;53.210;5.772;2023-10-13T01:32:19;51.97;;;23.98;;
56477;SDS011;42382;53.210;5.772;2023-10-13T01:34:48;44.70;;;21.27;;
56477;SDS011;42382;53.210;5.772;2023-10-13T01:37:19;44.33;;;20.73;;
56477;SDS011;42382;53.210;5.772;2023-10-13T01:39:45;36.15;;;17.90;;
56477;SDS011;42382;53.210;5.772;2023-10-13T01:42:15;30.55;;;16.58;;
56477;SDS011;42382;53.210;5.772;2023-10-13T01:44:50;30.20;;;15.45;;
56477;SDS011;42382;53.210;5.772;2023-10-13T01:47:16;29.00;;;14.98;;
56477;SDS011;42382;53.210;5.772;2023-10-13T01:49:42;23.52;;;12.52;;
56477;SDS011;42382;53.210;5.772;2023-10-13T01:52:12;28.33;;;12.73;;
56477;SDS011;42382;53.210;5.772;2023-10-13T01:54:41;23.58;;;12.30;;
56477;SDS011;42382;53.210;5.772;2023-10-13T01:57:11;19.77;;;10.80;;
56477;SDS011;42382;53.210;5.772;2023-10-13T01:59:46;20.70;;;10.45;;
56477;SDS011;42382;53.210;5.772;2023-10-13T02:02:13;19.40;;;9.82;;
56477;SDS011;42382;53.210;5.772;2023-10-13T02:04:42;20.48;;;9.93;;
56477;SDS011;42382;53.210;5.772;2023-10-13T02:07:16;23.80;;;9.93;;
56477;SDS011;42382;53.210;5.772;2023-10-13T02:09:42;17.23;;;9.60;;
56477;SDS011;42382;53.210;5.772;2023-10-13T02:12:08;22.42;;;9.43;;
56477;SDS011;42382;53.210;5.772;2023-10-13T02:14:37;23.30;;;9.85;;
56477;SDS011;42382;53.210;5.772;2023-10-13T02:17:03;19.90;;;9.63;;
56477;SDS011;42382;53.210;5.772;2023-10-13T02:19:38;23.83;;;9.57;;
56477;SDS011;42382;53.210;5.772;2023-10-13T02:22:08;19.15;;;9.43;;
56477;SDS011;42382;53.210;5.772;2023-10-13T02:24:35;23.38;;;9.75;;
56477;SDS011;42382;53.210;5.772;2023-10-13T02:27:05;19.08;;;10.73;;
56477;SDS011;42382;53.210;5.772;2023-10-13T02:29:38;22.02;;;10.45;;
56477;SDS011;42382;53.210;5.772;2023-10-13T02:34:47;22.05;;;12.20;;
56477;SDS011;42382;53.210;5.772;2023-10-13T02:37:12;22.48;;;12.07;;
56477;SDS011;42382;53.210;5.772;2023-10-13T02:39:39;21.30;;;13.23;;
56477;SDS011;42382;53.210;5.772;2023-10-13T02:42:08;25.17;;;14.55;;
56477;SDS011;42382;53.210;5.772;2023-10-13T02:44:41;28.67;;;14.77;;
56477;SDS011;42382;53.210;5.772;2023-10-13T02:47:11;29.75;;;14.23;;
56477;SDS011;42382;53.210;5.772;2023-10-13T02:49:39;28.60;;;16.10;;
56477;SDS011;42382;53.210;5.772;2023-10-13T02:52:09;30.38;;;14.30;;
56477;SDS011;42382;53.210;5.772;2023-10-13T02:54:37;28.10;;;15.30;;
56477;SDS011;42382;53.210;5.772;2023-10-13T02:57:15;29.42;;;14.48;;
56477;SDS011;42382;53.210;5.772;2023-10-13T02:59:41;30.58;;;15.77;;
56477;SDS011;42382;53.210;5.772;2023-10-13T03:02:21;35.33;;;17.75;;
56477;SDS011;42382;53.210;5.772;2023-10-13T03:04:53;34.78;;;18.27;;
56477;SDS011;42382;53.210;5.772;2023-10-13T03:07:40;40.53;;;18.98;;
56477;SDS011;42382;53.210;5.772;2023-10-13T03:10:09;36.35;;;19.70;;
56477;SDS011;42382;53.210;5.772;2023-10-13T03:12:36;39.08;;;20.08;;
56477;SDS011;42382;53.210;5.772;2023-10-13T03:15:02;42.53;;;20.50;;
56477;SDS011;42382;53.210;5.772;2023-10-13T03:17:38;52.35;;;22.83;;
56477;SDS011;42382;53.210;5.772;2023-10-13T03:20:09;47.67;;;22.58;;
56477;SDS011;42382;53.210;5.772;2023-10-13T03:22:38;51.78;;;23.45;;
56477;SDS011;42382;53.210;5.772;2023-10-13T03:25:03;48.45;;;22.10;;
56477;SDS011;42382;53.210;5.772;2023-10-13T03:27:31;48.90;;;23.08;;
56477;SDS011;42382;53.210;5.772;2023-10-13T03:30:26;52.85;;;22.98;;
56477;SDS011;42382;53.210;5.772;2023-10-13T03:33:01;65.40;;;25.10;;
56477;SDS011;42382;53.210;5.772;2023-10-13T03:35:31;49.90;;;22.85;;
56477;SDS011;42382;53.210;5.772;2023-10-13T03:38:07;56.30;;;23.80;;
56477;SDS011;42382;53.210;5.772;2023-10-13T03:40:44;49.55;;;23.50;;
56477;SDS011;42382;53.210;5.772;2023-10-13T03:43:32;48.47;;;22.65;;
56477;SDS011;42382;53.210;5.772;2023-10-13T03:46:10;49.70;;;23.38;;
56477;SDS011;42382;53.210;5.772;2023-10-13T03:48:35;51.13;;;23.15;;
56477;SDS011;42382;53.210;5.772;2023-10-13T03:51:20;53.72;;;24.02;;
56477;SDS011;42382;53.210;5.772;2023-10-13T03:53:45;53.53;;;24.17;;
56477;SDS011;42382;53.210;5.772;2023-10-13T03:56:22;50.95;;;23.17;;
56477;SDS011;42382;53.210;5.772;2023-10-13T03:58:53;53.28;;;24.02;;
56477;SDS011;42382;53.210;5.772;2023-10-13T04:01:20;47.03;;;22.08;;
56477;SDS011;42382;53.210;5.772;2023-10-13T04:03:56;38.47;;;19.88;;
56477;SDS011;42382;53.210;5.772;2023-10-13T04:06:32;47.75;;;22.83;;
56477;SDS011;42382;53.210;5.772;2023-10-13T04:09:20;41.42;;;20.80;;
56477;SDS011;42382;53.210;5.772;2023-10-13T04:11:49;44.00;;;20.58;;
56477;SDS011;42382;53.210;5.772;2023-10-13T04:14:39;42.17;;;20.88;;
56477;SDS011;42382;53.210;5.772;2023-10-13T04:17:25;37.35;;;19.88;;
56477;SDS011;42382;53.210;5.772;2023-10-13T04:19:53;37.55;;;19.60;;
56477;SDS011;42382;53.210;5.772;2023-10-13T04:22:31;41.80;;;20.23;;
56477;SDS011;42382;53.210;5.772;2023-10-13T04:28:00;33.33;;;16.77;;
56477;SDS011;42382;53.210;5.772;2023-10-13T04:30:50;29.88;;;15.30;;
56477;SDS011;42382;53.210;5.772;2023-10-13T04:38:53;24.70;;;13.95;;
56477;SDS011;42382;53.210;5.772;2023-10-13T04:41:43;27.75;;;13.63;;
56477;SDS011;42382;53.210;5.772;2023-10-13T04:44:15;23.05;;;12.38;;
56477;SDS011;42382;53.210;5.772;2023-10-13T04:47:00;24.13;;;13.20;;
56477;SDS011;42382;53.210;5.772;2023-10-13T04:49:26;33.20;;;15.48;;
56477;SDS011;42382;53.210;5.772;2023-10-13T04:52:11;33.08;;;15.90;;
56477;SDS011;42382;53.210;5.772;2023-10-13T04:54:37;39.63;;;18.92;;
56477;SDS011;42382;53.210;5.772;2023-10-13T04:57:23;33.17;;;17.90;;
56477;SDS011;42382;53.210;5.772;2023-10-13T05:00:00;32.15;;;16.83;;
56477;SDS011;42382;53.210;5.772;2023-10-13T05:02:40;34.40;;;16.85;;
56477;SDS011;42382;53.210;5.772;2023-10-13T05:05:25;31.70;;;15.88;;
56477;SDS011;42382;53.210;5.772;2023-10-13T05:08:09;28.58;;;16.17;;
56477;SDS011;42382;53.210;5.772;2023-10-13T05:10:56;28.60;;;15.40;;
56477;SDS011;42382;53.210;5.772;2023-10-13T05:13:41;26.40;;;13.80;;
56477;SDS011;42382;53.210;5.772;2023-10-13T05:16:25;31.08;;;15.77;;
56477;SDS011;42382;53.210;5.772;2023-10-13T05:19:09;29.90;;;15.05;;
56477;SDS011;42382;53.210;5.772;2023-10-13T05:21:53;28.63;;;13.88;;
56477;SDS011;42382;53.210;5.772;2023-10-13T05:24:38;27.40;;;15.88;;
56477;SDS011;42382;53.210;5.772;2023-10-13T05:27:22;28.25;;;14.98;;
56477;SDS011;42382;53.210;5.772;2023-10-13T05:30:06;30.02;;;15.13;;
56477;SDS011;42382;53.210;5.772;2023-10-13T05:32:51;24.13;;;14.02;;
56477;SDS011;42382;53.210;5.772;2023-10-13T05:35:35;20.65;;;13.00;;
56477;SDS011;42382;53.210;5.772;2023-10-13T05:38:19;24.60;;;13.60;;
56477;SDS011;42382;53.210;5.772;2023-10-13T05:41:04;18.00;;;9.77;;
56477;SDS011;42382;53.210;5.772;2023-10-13T05:43:49;9.93;;;6.68;;
56477;SDS011;42382;53.210;5.772;2023-10-13T05:46:34;10.02;;;6.22;;
56477;SDS011;42382;53.210;5.772;2023-10-13T05:49:04;8.98;;;6.22;;
56477;SDS011;42382;53.210;5.772;2023-10-13T05:51:31;12.85;;;6.47;;
56477;SDS011;42382;53.210;5.772;2023-10-13T05:54:01;9.52;;;5.80;;
56477;SDS011;42382;53.210;5.772;2023-10-13T05:59:27;9.15;;;4.65;;
56477;SDS011;42382;53.210;5.772;2023-10-13T06:02:13;8.32;;;5.07;;
56477;SDS011;42382;53.210;5.772;2023-10-13T06:05:01;10.68;;;6.30;;
56477;SDS011;42382;53.210;5.772;2023-10-13T06:07:47;7.97;;;5.38;;
56477;SDS011;42382;53.210;5.772;2023-10-13T06:10:31;8.98;;;5.05;;
56477;SDS011;42382;53.210;5.772;2023-10-13T06:13:16;10.38;;;5.00;;
56477;SDS011;42382;53.210;5.772;2023-10-13T06:16:00;10.30;;;5.30;;
56477;SDS011;42382;53.210;5.772;2023-10-13T06:18:48;7.78;;;4.80;;
56477;SDS011;42382;53.210;5.772;2023-10-13T06:21:32;10.18;;;5.40;;
56477;SDS011;42382;53.210;5.772;2023-10-13T06:24:16;10.30;;;6.15;;
56477;SDS011;42382;53.210;5.772;2023-10-13T06:27:01;10.00;;;6.13;;
56477;SDS011;42382;53.210;5.772;2023-10-13T06:29:45;8.50;;;5.55;;
56477;SDS011;42382;53.210;5.772;2023-10-13T06:32:12;9.02;;;6.03;;
56477;SDS011;42382;53.210;5.772;2023-10-13T06:34:38;10.23;;;3.22;;
56477;SDS011;42382;53.210;5.772;2023-10-13T06:37:10;9.40;;;3.35;;
56477;SDS011;42382;53.210;5.772;2023-10-13T06:39:55;7.72;;;3.42;;
56477;SDS011;42382;53.210;5.772;2023-10-13T06:42:25;9.90;;;4.18;;
56477;SDS011;42382;53.210;5.772;2023-10-13T06:44:55;6.82;;;4.15;;
56477;SDS011;42382;53.210;5.772;2023-10-13T06:47:21;6.03;;;3.90;;
56477;SDS011;42382;53.210;5.772;2023-10-13T06:49:48;6.78;;;4.25;;
56477;SDS011;42382;53.210;5.772;2023-10-13T06:52:16;8.60;;;5.05;;
56477;SDS011;42382;53.210;5.772;2023-10-13T06:54:42;10.75;;;4.55;;
56477;SDS011;42382;53.210;5.772;2023-10-13T06:57:09;11.35;;;4.75;;
56477;SDS011;42382;53.210;5.772;2023-10-13T06:59:45;12.85;;;4.95;;
56477;SDS011;42382;53.210;5.772;2023-10-13T07:02:11;16.83;;;5.22;;
56477;SDS011;42382;53.210;5.772;2023-10-13T07:04:49;15.67;;;4.27;;
56477;SDS011;42382;53.210;5.772;2023-10-13T07:07:32;20.45;;;4.97;;
56477;SDS011;42382;53.210;5.772;2023-10-13T07:09:58;20.77;;;4.75;;
56477;SDS011;42382;53.210;5.772;2023-10-13T07:12:24;20.13;;;5.00;;
56477;SDS011;42382;53.210;5.772;2023-10-13T07:14:52;21.98;;;5.57;;
56477;SDS011;42382;53.210;5.772;2023-10-13T07:17:25;18.05;;;4.78;;
56477;SDS011;42382;53.210;5.772;2023-10-13T07:19:51;22.77;;;5.35;;
56477;SDS011;42382;53.210;5.772;2023-10-13T07:22:31;22.08;;;5.60;;
56477;SDS011;42382;53.210;5.772;2023-10-13T07:25:04;25.05;;;6.78;;
56477;SDS011;42382;53.210;5.772;2023-10-13T07:27:31;19.75;;;5.35;;
56477;SDS011;42382;53.210;5.772;2023-10-13T07:30:00;20.63;;;5.78;;
56477;SDS011;42382;53.210;5.772;2023-10-13T07:32:42;18.17;;;5.40;;
56477;SDS011;42382;53.210;5.772;2023-10-13T07:35:14;22.38;;;6.45;;
56477;SDS011;42382;53.210;5.772;2023-10-13T07:37:43;21.92;;;5.45;;
56477;SDS011;42382;53.210;5.772;2023-10-13T07:40:10;22.38;;;5.97;;
56477;SDS011;42382;53.210;5.772;2023-10-13T07:42:51;18.35;;;5.22;;
56477;SDS011;42382;53.210;5.772;2023-10-13T07:45:26;15.13;;;5.15;;
56477;SDS011;42382;53.210;5.772;2023-10-13T07:50:37;22.08;;;6.32;;
56477;SDS011;42382;53.210;5.772;2023-10-13T07:53:03;22.00;;;5.57;;
56477;SDS011;42382;53.210;5.772;2023-10-13T07:55:47;25.42;;;6.28;;
56477;SDS011;42382;53.210;5.772;2023-10-13T07:58:12;24.02;;;6.15;;
56477;SDS011;42382;53.210;5.772;2023-10-13T08:00:38;28.15;;;6.50;;
56477;SDS011;42382;53.210;5.772;2023-10-13T08:03:10;27.63;;;7.32;;
56477;SDS011;42382;53.210;5.772;2023-10-13T08:05:51;21.50;;;6.20;;
56477;SDS011;42382;53.210;5.772;2023-10-13T08:08:44;21.98;;;6.55;;
56477;SDS011;42382;53.210;5.772;2023-10-13T08:11:15;23.55;;;6.45;;
56477;SDS011;42382;53.210;5.772;2023-10-13T08:14:00;23.13;;;6.13;;
56477;SDS011;42382;53.210;5.772;2023-10-13T08:16:36;21.77;;;6.75;;
56477;SDS011;42382;53.210;5.772;2023-10-13T08:19:18;23.02;;;6.18;;
56477;SDS011;42382;53.210;5.772;2023-10-13T08:22:05;25.23;;;5.82;;
56477;SDS011;42382;53.210;5.772;2023-10-13T08:24:42;22.10;;;5.97;;
56477;SDS011;42382;53.210;5.772;2023-10-13T08:27:12;23.58;;;5.28;;
56477;SDS011;42382;53.210;5.772;2023-10-13T08:29:39;17.42;;;5.55;;
56477;SDS011;42382;53.210;5.772;2023-10-13T08:32:29;12.93;;;4.63;;
56477;SDS011;42382;53.210;5.772;2023-10-13T08:34:55;22.77;;;5.22;;
56477;SDS011;42382;53.210;5.772;2023-10-13T08:37:22;13.75;;;5.22;;
56477;SDS011;42382;53.210;5.772;2023-10-13T08:42:38;16.50;;;4.93;;
56477;SDS011;42382;53.210;5.772;2023-10-13T08:45:07;13.75;;;5.20;;
56477;SDS011;42382;53.210;5.772;2023-10-13T08:47:53;13.15;;;4.70;;
56477;SDS011;42382;53.210;5.772;2023-10-13T08:50:32;14.90;;;5.13;;
56477;SDS011;42382;53.210;5.772;2023-10-13T08:53:20;18.83;;;5.35;;
56477;SDS011;42382;53.210;5.772;2023-10-13T08:55:53;16.85;;;5.93;;
56477;SDS011;42382;53.210;5.772;2023-10-13T09:01:19;13.25;;;6.20;;
56477;SDS011;42382;53.210;5.772;2023-10-13T09:04:05;11.82;;;6.35;;
56477;SDS011;42382;53.210;5.772;2023-10-13T09:09:24;19.85;;;7.05;;
56477;SDS011;42382;53.210;5.772;2023-10-13T09:12:02;15.75;;;6.28;;
56477;SDS011;42382;53.210;5.772;2023-10-13T09:14:39;12.35;;;6.97;;
56477;SDS011;42382;53.210;5.772;2023-10-13T09:17:10;19.52;;;7.50;;
56477;SDS011;42382;53.210;5.772;2023-10-13T09:19:50;14.65;;;6.63;;
56477;SDS011;42382;53.210;5.772;2023-10-13T09:22:27;17.25;;;7.00;;
56477;SDS011;42382;53.210;5.772;2023-10-13T09:25:02;13.82;;;6.50;;
56477;SDS011;42382;53.210;5.772;2023-10-13T09:27:40;15.40;;;7.25;;
56477;SDS011;42382;53.210;5.772;2023-10-13T09:30:06;15.98;;;5.55;;
56477;SDS011;42382;53.210;5.772;2023-10-13T09:32:47;11.05;;;5.65;;
56477;SDS011;42382;53.210;5.772;2023-10-13T09:35:27;9.73;;;5.05;;
56477;SDS011;42382;53.210;5.772;2023-10-13T09:37:53;16.55;;;5.50;;
56477;SDS011;42382;53.210;5.772;2023-10-13T09:40:22;15.95;;;5.65;;
56477;SDS011;42382;53.210;5.772;2023-10-13T09:42:59;12.88;;;4.80;;
56477;SDS011;42382;53.210;5.772;2023-10-13T09:45:32;10.57;;;4.47;;
56477;SDS011;42382;53.210;5.772;2023-10-13T09:48:03;14.30;;;5.35;;
56477;SDS011;42382;53.210;5.772;2023-10-13T09:50:41;9.57;;;4.38;;
56477;SDS011;42382;53.210;5.772;2023-10-13T09:53:11;17.02;;;4.75;;
56477;SDS011;42382;53.210;5.772;2023-10-13T09:55:44;20.73;;;4.97;;
56477;SDS011;42382;53.210;5.772;2023-10-13T09:58:13;12.95;;;4.53;;
56477;SDS011;42382;53.210;5.772;2023-10-13T10:00:47;14.75;;;4.07;;
56477;SDS011;42382;53.210;5.772;2023-10-13T10:03:26;13.70;;;4.85;;
56477;SDS011;42382;53.210;5.772;2023-10-13T10:05:56;15.95;;;4.65;;
56477;SDS011;42382;53.210;5.772;2023-10-13T10:08:39;20.48;;;4.95;;
56477;SDS011;42382;53.210;5.772;2023-10-13T10:17:07;14.70;;;4.25;;
56477;SDS011;42382;53.210;5.772;2023-10-13T10:19:44;14.57;;;4.80;;
56477;SDS011;42382;53.210;5.772;2023-10-13T10:22:11;16.10;;;3.97;;
56477;SDS011;42382;53.210;5.772;2023-10-13T10:24:43;16.27;;;4.18;;
56477;SDS011;42382;53.210;5.772;2023-10-13T10:27:11;14.43;;;3.72;;
56477;SDS011;42382;53.210;5.772;2023-10-13T10:29:40;16.23;;;4.60;;
56477;SDS011;42382;53.210;5.772;2023-10-13T10:32:17;21.80;;;5.40;;
56477;SDS011;42382;53.210;5.772;2023-10-13T10:34:47;20.80;;;4.43;;
56477;SDS011;42382;53.210;5.772;2023-10-13T10:37:13;13.52;;;4.35;;
56477;SDS011;42382;53.210;5.772;2023-10-13T10:39:39;15.98;;;4.00;;
56477;SDS011;42382;53.210;5.772;2023-10-13T10:42:14;9.93;;;3.70;;
56477;SDS011;42382;53.210;5.772;2023-10-13T10:44:54;15.73;;;4.13;;
56477;SDS011;42382;53.210;5.772;2023-10-13T10:47:21;18.67;;;4.70;;
56477;SDS011;42382;53.210;5.772;2023-10-13T10:49:59;13.02;;;4.30;;
56477;SDS011;42382;53.210;5.772;2023-10-13T10:52:32;16.77;;;4.65;;
56477;SDS011;42382;53.210;5.772;2023-10-13T10:55:02;17.50;;;6.00;;
56477;SDS011;42382;53.210;5.772;2023-10-13T10:57:33;15.40;;;5.22;;
56477;SDS011;42382;53.210;5.772;2023-10-13T11:00:03;15.82;;;4.50;;
56477;SDS011;42382;53.210;5.772;2023-10-13T11:02:55;17.63;;;4.93;;
56477;SDS011;42382;53.210;5.772;2023-10-13T11:05:21;16.80;;;4.03;;
56477;SDS011;42382;53.210;5.772;2023-10-13T11:07:49;14.93;;;4.68;;
56477;SDS011;42382;53.210;5.772;2023-10-13T11:10:18;13.68;;;4.57;;
56477;SDS011;42382;53.210;5.772;2023-10-13T11:12:56;23.58;;;4.45;;
56477;SDS011;42382;53.210;5.772;2023-10-13T11:15:47;18.80;;;4.43;;
56477;SDS011;42382;53.210;5.772;2023-10-13T11:18:13;15.77;;;6.13;;
56477;SDS011;42382;53.210;5.772;2023-10-13T11:20:48;15.70;;;4.68;;
56477;SDS011;42382;53.210;5.772;2023-10-13T11:23:20;17.67;;;4.70;;
56477;SDS011;42382;53.210;5.772;2023-10-13T11:25:56;15.88;;;4.85;;
56477;SDS011;42382;53.210;5.772;2023-10-13T11:28:24;24.42;;;4.93;;
56477;SDS011;42382;53.210;5.772;2023-10-13T11:30:54;21.17;;;5.30;;
56477;SDS011;42382;53.210;5.772;2023-10-13T11:33:23;20.05;;;5.65;;
56477;SDS011;42382;53.210;5.772;2023-10-13T11:35:54;17.40;;;4.60;;
56477;SDS011;42382;53.210;5.772;2023-10-13T11:38:21;17.85;;;4.57;;
56477;SDS011;42382;53.210;5.772;2023-10-13T12:01:00;20.00;;;6.30;;
56477;SDS011;42382;53.210;5.772;2023-10-13T12:29:48;21.40;;;8.20;;
56477;SDS011;42382;53.210;5.772;2023-10-13T12:32:16;20.43;;;7.67;;
56477;SDS011;42382;53.210;5.772;2023-10-13T12:34:55;22.08;;;8.18;;
56477;SDS011;42382;53.210;5.772;2023-10-13T12:45:44;21.60;;;7.80;;
56477;SDS011;42382;53.210;5.772;2023-10-13T12:48:30;20.80;;;8.30;;
56477;SDS011;42382;53.210;5.772;2023-10-13T12:51:15;15.90;;;7.70;;
56477;SDS011;42382;53.210;5.772;2023-10-13T12:54:00;18.10;;;6.75;;
56477;SDS011;42382;53.210;5.772;2023-10-13T12:56:48;17.00;;;7.10;;
56477;SDS011;42382;53.210;5.772;2023-10-13T12:59:13;22.65;;;7.18;;
56477;SDS011;42382;53.210;5.772;2023-10-13T13:01:39;23.10;;;7.10;;
56477;SDS011;42382;53.210;5.772;2023-10-13T13:14:08;28.20;;;6.90;;
56477;SDS011;42382;53.210;5.772;2023-10-13T13:16:35;32.60;;;8.00;;
56477;SDS011;42382;53.210;5.772;2023-10-13T13:19:04;30.90;;;8.30;;
56477;SDS011;42382;53.210;5.772;2023-10-13T13:21:37;27.58;;;8.85;;
56477;SDS011;42382;53.210;5.772;2023-10-13T13:24:03;24.85;;;8.45;;
56477;SDS011;42382;53.210;5.772;2023-10-13T13:26:35;47.80;;;8.90;;
56477;SDS011;42382;53.210;5.772;2023-10-13T13:31:34;30.45;;;8.95;;
56477;SDS011;42382;53.210;5.772;2023-10-13T13:34:05;23.30;;;8.20;;
56477;SDS011;42382;53.210;5.772;2023-10-13T13:36:34;27.85;;;9.18;;
56477;SDS011;42382;53.210;5.772;2023-10-13T13:39:00;28.10;;;9.10;;
56477;SDS011;42382;53.210;5.772;2023-10-13T13:41:26;26.33;;;8.73;;
56477;SDS011;42382;53.210;5.772;2023-10-13T13:43:52;27.27;;;8.05;;
56477;SDS011;42382;53.210;5.772;2023-10-13T13:46:24;28.55;;;7.72;;
56477;SDS011;42382;53.210;5.772;2023-10-13T13:48:52;29.67;;;8.15;;
56477;SDS011;42382;53.210;5.772;2023-10-13T13:51:28;33.30;;;8.95;;
56477;SDS011;42382;53.210;5.772;2023-10-13T13:53:56;31.02;;;8.77;;
56477;SDS011;42382;53.210;5.772;2023-10-13T13:56:22;26.58;;;7.80;;
56477;SDS011;42382;53.210;5.772;2023-10-13T13:58:51;31.08;;;7.72;;
56477;SDS011;42382;53.210;5.772;2023-10-13T14:01:18;35.67;;;8.93;;
56477;SDS011;42382;53.210;5.772;2023-10-13T14:03:45;29.58;;;8.27;;
56477;SDS011;42382;53.210;5.772;2023-10-13T14:06:15;27.83;;;7.50;;
56477;SDS011;42382;53.210;5.772;2023-10-13T14:08:54;29.85;;;8.07;;
56477;SDS011;42382;53.210;5.772;2023-10-13T14:11:22;32.65;;;7.57;;
56477;SDS011;42382;53.210;5.772;2023-10-13T14:14:08;27.05;;;7.85;;
56477;SDS011;42382;53.210;5.772;2023-10-13T14:16:42;27.92;;;7.57;;
56477;SDS011;42382;53.210;5.772;2023-10-13T14:19:12;35.72;;;8.73;;
56477;SDS011;42382;53.210;5.772;2023-10-13T14:21:54;33.80;;;7.90;;
56477;SDS011;42382;53.210;5.772;2023-10-13T14:24:31;36.03;;;7.20;;
56477;SDS011;42382;53.210;5.772;2023-10-13T14:27:00;33.03;;;7.80;;
56477;SDS011;42382;53.210;5.772;2023-10-13T14:29:34;30.05;;;8.10;;
56477;SDS011;42382;53.210;5.772;2023-10-13T14:32:05;28.50;;;8.13;;
56477;SDS011;42382;53.210;5.772;2023-10-13T14:34:32;30.15;;;6.90;;
56477;SDS011;42382;53.210;5.772;2023-10-13T14:37:00;37.30;;;7.13;;
56477;SDS011;42382;53.210;5.772;2023-10-13T14:39:25;29.15;;;7.72;;
56477;SDS011;42382;53.210;5.772;2023-10-13T14:41:54;31.35;;;7.65;;
56477;SDS011;42382;53.210;5.772;2023-10-13T14:44:20;24.13;;;6.90;;
56477;SDS011;42382;53.210;5.772;2023-10-13T14:46:51;35.03;;;7.50;;
56477;SDS011;42382;53.210;5.772;2023-10-13T14:49:20;31.83;;;7.50;;
56477;SDS011;42382;53.210;5.772;2023-10-13T14:51:46;38.33;;;9.23;;
56477;SDS011;42382;53.210;5.772;2023-10-13T14:54:12;26.73;;;7.30;;
56477;SDS011;42382;53.210;5.772;2023-10-13T14:56:39;38.95;;;8.23;;
56477;SDS011;42382;53.210;5.772;2023-10-13T14:59:07;36.75;;;8.25;;
56477;SDS011;42382;53.210;5.772;2023-10-13T15:01:41;28.50;;;7.13;;
56477;SDS011;42382;53.210;5.772;2023-10-13T15:04:08;26.30;;;6.43;;
56477;SDS011;42382;53.210;5.772;2023-10-13T15:06:34;32.78;;;7.78;;
56477;SDS011;42382;53.210;5.772;2023-10-13T15:08:59;32.50;;;8.18;;
56477;SDS011;42382;53.210;5.772;2023-10-13T15:11:26;31.83;;;8.13;;
56477;SDS011;42382;53.210;5.772;2023-10-13T15:13:55;29.13;;;7.68;;
56477;SDS011;42382;53.210;5.772;2023-10-13T15:16:22;34.58;;;8.95;;
56477;SDS011;42382;53.210;5.772;2023-10-13T15:18:49;34.53;;;8.55;;
56477;SDS011;42382;53.210;5.772;2023-10-13T15:21:23;39.42;;;7.55;;
56477;SDS011;42382;53.210;5.772;2023-10-13T15:23:55;36.38;;;8.93;;
56477;SDS011;42382;53.210;5.772;2023-10-13T15:26:25;31.17;;;9.05;;
56477;SDS011;42382;53.210;5.772;2023-10-13T15:28:51;33.40;;;7.85;;
56477;SDS011;42382;53.210;5.772;2023-10-13T15:31:21;32.65;;;7.95;;
56477;SDS011;42382;53.210;5.772;2023-10-13T15:34:00;29.63;;;7.55;;
56477;SDS011;42382;53.210;5.772;2023-10-13T15:36:40;34.10;;;7.78;;
56477;SDS011;42382;53.210;5.772;2023-10-13T15:39:09;31.80;;;8.23;;
56477;SDS011;42382;53.210;5.772;2023-10-13T15:41:40;39.42;;;8.80;;
56477;SDS011;42382;53.210;5.772;2023-10-13T15:44:13;30.85;;;8.43;;
56477;SDS011;42382;53.210;5.772;2023-10-13T15:46:40;27.52;;;7.90;;
56477;SDS011;42382;53.210;5.772;2023-10-13T15:49:06;34.40;;;6.80;;
56477;SDS011;42382;53.210;5.772;2023-10-13T15:51:32;27.50;;;6.97;;
56477;SDS011;42382;53.210;5.772;2023-10-13T15:54:07;33.30;;;7.45;;
56477;SDS011;42382;53.210;5.772;2023-10-13T15:56:51;31.00;;;7.32;;
56477;SDS011;42382;53.210;5.772;2023-10-13T15:59:16;29.80;;;6.35;;
56477;SDS011;42382;53.210;5.772;2023-10-13T16:01:42;27.10;;;6.75;;
56477;SDS011;42382;53.210;5.772;2023-10-13T16:04:11;33.17;;;7.03;;
56477;SDS011;42382;53.210;5.772;2023-10-13T16:06:39;32.40;;;7.40;;
56477;SDS011;42382;53.210;5.772;2023-10-13T16:09:05;26.02;;;6.60;;
56477;SDS011;42382;53.210;5.772;2023-10-13T16:11:43;28.50;;;6.60;;
56477;SDS011;42382;53.210;5.772;2023-10-13T16:14:09;28.95;;;7.57;;
56477;SDS011;42382;53.210;5.772;2023-10-13T16:16:36;35.35;;;8.50;;
56477;SDS011;42382;53.210;5.772;2023-10-13T16:19:02;29.35;;;7.93;;
56477;SDS011;42382;53.210;5.772;2023-10-13T16:21:30;34.22;;;7.78;;
56477;SDS011;42382;53.210;5.772;2023-10-13T16:23:55;30.17;;;6.65;;
56477;SDS011;42382;53.210;5.772;2023-10-13T16:26:21;31.15;;;6.40;;
56477;SDS011;42382;53.210;5.772;2023-10-13T16:28:52;31.10;;;6.57;;
56477;SDS011;42382;53.210;5.772;2023-10-13T16:31:22;28.95;;;6.20;;
56477;SDS011;42382;53.210;5.772;2023-10-13T16:33:49;24.40;;;5.60;;
56477;SDS011;42382;53.210;5.772;2023-10-13T16:36:14;26.92;;;6.30;;
56477;SDS011;42382;53.210;5.772;2023-10-13T16:38:40;26.95;;;5.95;;
56477;SDS011;42382;53.210;5.772;2023-10-13T16:41:10;32.03;;;6.40;;
56477;SDS011;42382;53.210;5.772;2023-10-13T16:43:38;28.10;;;6.50;;